Terminal Aerodrome Forecast
Issued by NWS

Home | Current Version | Previous Version | Text Only | Print | Product List | Glossary On
Versions: 1 2 3 4 5 6 7 8 9 10 11 12 13 14 15 16 17
833
FTUS43 KAPX 101120
TAFMBL
TAF
KMBL 101120Z 1012/1112 28010G18KT P6SM -SHSN BKN025 OVC035
     FM110000 27005KT P6SM VCSH OVC035
     FM110900 12004KT 5SM -SHSN OVC025=

USA.gov is the U.S. government's official web portal to all federal, state and local government web resources and services.